Time;durP1;ratioP1;P1;durP2;ratioP2;P2;SDS_P1;SDS_P2;PMS_P1;PMS_P2;Temp;Humidity;BMP_temperature;BMP_pressure;BME280_temperature;BME280_humidity;BME280_pressure;Samples;Min_cycle;Max_cycle;Signal;HPM_P1;HPM_P2
2022/01/28 00:00:49;;;;;;;15.70;3.80;;;5.90;99.90;;;;;;5028008;28;20116;-85
2022/01/28 00:03:10;;;;;;;19.02;3.42;;;5.90;99.90;;;;;;5025398;28;20406;-86
2022/01/28 00:05:37;;;;;;;18.10;3.97;;;5.90;99.90;;;;;;5014641;28;21021;-85
2022/01/28 00:08:04;;;;;;;12.20;2.30;;;6.70;99.90;;;;;;5015176;28;20042;-85
2022/01/28 00:10:32;;;;;;;13.35;2.63;;;5.80;99.90;;;;;;5026806;28;20371;-86
2022/01/28 00:15:44;;;;;;;15.40;2.95;;;6.30;99.90;;;;;;5036467;28;20049;-86
2022/01/28 00:39:47;;;;;;;19.30;2.85;;;5.10;99.90;;;;;;5019170;28;20052;-86
2022/01/28 00:42:13;;;;;;;14.15;2.88;;;6.20;99.90;;;;;;5021783;28;20040;-85
2022/01/28 00:44:39;;;;;;;17.17;3.40;;;5.40;99.90;;;;;;5003541;28;20049;-85
2022/01/28 00:47:05;;;;;;;18.23;3.33;;;5.90;99.90;;;;;;5034327;28;20029;-85
2022/01/28 00:49:30;;;;;;;17.60;3.15;;;5.20;99.90;;;;;;5034545;28;20045;-86
2022/01/28 00:51:56;;;;;;;19.45;3.97;;;5.20;99.90;;;;;;5006221;28;20042;-86
2022/01/28 00:54:22;;;;;;;24.38;4.63;;;6.40;99.90;;;;;;5022013;28;20119;-85
2022/01/28 00:56:48;;;;;;;25.17;4.07;;;5.30;99.90;;;;;;5035613;28;20038;-86
2022/01/28 00:59:15;;;;;;;20.75;3.83;;;5.40;99.90;;;;;;5018553;28;20048;-85
2022/01/28 01:01:41;;;;;;;23.23;4.10;;;6.50;99.90;;;;;;5025889;28;20043;-86
2022/01/28 01:04:07;;;;;;;20.65;4.22;;;6.70;99.90;;;;;;5033865;28;20068;-85
2022/01/28 01:06:33;;;;;;;21.88;3.70;;;5.30;99.90;;;;;;5011480;28;20037;-85
2022/01/28 01:08:59;;;;;;;13.43;3.33;;;6.60;99.90;;;;;;5039854;28;20040;-85
2022/01/28 01:11:26;;;;;;;15.85;3.38;;;6.20;99.90;;;;;;5022550;28;20037;-85
2022/01/28 01:13:52;;;;;;;18.00;3.38;;;5.10;99.90;;;;;;5027333;28;20034;-85
2022/01/28 01:16:27;;;;;;;15.68;3.10;;;5.20;99.90;;;;;;5021936;28;20064;-85
2022/01/28 01:19:14;;;;;;;14.88;3.20;;;5.10;99.90;;;;;;5022957;28;20505;-85
2022/01/28 01:21:42;;;;;;;21.25;3.28;;;6.40;99.90;;;;;;5015106;28;20336;-85
2022/01/28 01:24:10;;;;;;;20.67;3.95;;;5.10;99.90;;;;;;5007369;28;20042;-85
2022/01/28 01:26:39;;;;;;;17.05;3.80;;;6.70;99.90;;;;;;5007785;28;20507;-85
2022/01/28 01:29:08;;;;;;;15.48;3.17;;;5.10;99.90;;;;;;5032903;28;20129;-86
2022/01/28 01:31:39;;;;;;;22.55;4.18;;;5.40;99.90;;;;;;4999569;28;20108;-85
2022/01/28 01:34:12;;;;;;;23.50;4.38;;;6.60;99.90;;;;;;5032059;28;20137;-85
2022/01/28 01:36:38;;;;;;;20.23;3.97;;;6.20;99.90;;;;;;5004918;28;21241;-86
2022/01/28 01:39:04;;;;;;;20.33;4.65;;;6.20;99.90;;;;;;5033628;28;20060;-85
2022/01/28 01:41:38;;;;;;;19.20;4.00;;;5.20;99.90;;;;;;4992338;28;20077;-86
2022/01/28 01:44:09;;;;;;;22.00;4.00;;;5.20;99.90;;;;;;5029289;28;20044;-86
2022/01/28 01:54:26;;;;;;;26.35;4.63;;;5.20;99.90;;;;;;5035565;28;20045;-86
2022/01/28 01:56:54;;;;;;;18.15;3.65;;;5.30;99.90;;;;;;5048645;28;20059;-86
2022/01/28 01:59:20;;;;;;;17.33;3.75;;;5.30;99.90;;;;;;5047566;28;20045;-85
2022/01/28 02:01:46;;;;;;;24.60;4.18;;;5.70;99.90;;;;;;5032883;28;20072;-85
2022/01/28 02:04:11;;;;;;;26.63;4.68;;;6.80;99.90;;;;;;5000558;28;20120;-86
2022/01/28 02:06:38;;;;;;;23.20;3.60;;;7.00;99.90;;;;;;5014682;28;20068;-86
2022/01/28 02:09:08;;;;;;;17.30;3.67;;;6.80;99.90;;;;;;5042083;28;20043;-86
2022/01/28 02:11:35;;;;;;;19.83;3.95;;;5.70;99.90;;;;;;5049800;28;20037;-85
2022/01/28 02:14:02;;;;;;;17.77;4.07;;;6.90;99.90;;;;;;5025904;28;20056;-85
2022/01/28 02:16:28;;;;;;;24.05;4.55;;;5.70;99.90;;;;;;5008815;28;20118;-85
2022/01/28 02:18:57;;;;;;;19.48;3.88;;;5.60;99.90;;;;;;5029740;28;20045;-86
2022/01/28 02:21:23;;;;;;;25.35;4.60;;;6.40;99.90;;;;;;5025900;28;20514;-85
2022/01/28 02:23:54;;;;;;;20.73;4.72;;;5.60;99.90;;;;;;5020235;28;20076;-85
2022/01/28 02:26:19;;;;;;;19.75;3.67;;;6.50;99.90;;;;;;5041634;28;20044;-86
2022/01/28 02:28:50;;;;;;;21.83;4.18;;;7.00;99.90;;;;;;5043841;28;20490;-85
2022/01/28 02:31:20;;;;;;;21.48;3.80;;;7.90;99.90;;;;;;5032152;28;20080;-85
2022/01/28 02:33:47;;;;;;;22.75;4.20;;;5.80;99.90;;;;;;5007490;28;20056;-86
2022/01/28 02:36:13;;;;;;;21.23;4.93;;;5.90;99.90;;;;;;4997434;28;20041;-85
2022/01/28 02:38:39;;;;;;;23.90;3.95;;;5.90;99.90;;;;;;5015660;28;20048;-85
2022/01/28 02:41:05;;;;;;;24.92;4.78;;;7.00;99.90;;;;;;5018147;28;20048;-85
2022/01/28 02:46:05;;;;;;;21.92;4.47;;;5.90;99.90;;;;;;5026497;28;20041;-85
2022/01/28 02:48:33;;;;;;;19.92;3.67;;;5.90;99.90;;;;;;5039586;28;20104;-86
2022/01/28 02:53:38;;;;;;;20.58;4.30;;;7.10;99.90;;;;;;5035917;28;20057;-86
2022/01/28 02:56:12;;;;;;;20.60;4.22;;;7.20;99.90;;;;;;5020788;28;20143;-86
2022/01/28 02:58:39;;;;;;;19.33;3.95;;;5.70;99.90;;;;;;5027307;28;20064;-86
2022/01/28 03:01:05;;;;;;;24.08;4.95;;;6.60;99.90;;;;;;5013436;28;20040;-86
2022/01/28 03:03:31;;;;;;;23.90;4.45;;;5.70;99.90;;;;;;5024769;28;20131;-85
2022/01/28 03:05:57;;;;;;;21.20;4.22;;;6.40;99.90;;;;;;5025884;28;20112;-85
2022/01/28 03:08:28;;;;;;;22.67;5.05;;;6.20;99.90;;;;;;5032035;28;20037;-85
2022/01/28 03:16:28;;;;;;;23.98;6.00;;;6.90;99.90;;;;;;5022980;28;20446;-86
2022/01/28 03:19:01;;;;;;;27.42;4.68;;;5.80;99.90;;;;;;5014158;28;20033;-86
2022/01/28 03:23:56;;;;;;;23.40;4.80;;;5.80;99.90;;;;;;5038805;28;20504;-85
2022/01/28 03:26:26;;;;;;;27.65;5.75;;;6.90;99.90;;;;;;5041289;28;20041;-86
2022/01/28 03:28:52;;;;;;;23.05;5.00;;;6.70;99.90;;;;;;5030208;28;20082;-86
2022/01/28 03:31:18;;;;;;;25.70;5.15;;;7.30;99.90;;;;;;5023506;28;20049;-86
2022/01/28 03:33:44;;;;;;;20.35;4.60;;;6.70;99.90;;;;;;5026891;28;20045;-85
2022/01/28 03:36:12;;;;;;;17.08;3.65;;;6.20;99.90;;;;;;5030399;28;20066;-85
2022/01/28 03:38:39;;;;;;;20.13;4.25;;;6.80;99.90;;;;;;5027455;28;20045;-86
2022/01/28 03:41:11;;;;;;;20.20;4.10;;;7.30;99.90;;;;;;5008695;28;20063;-86
2022/01/28 03:43:37;;;;;;;16.65;3.63;;;7.80;99.90;;;;;;5018005;28;20041;-85
2022/01/28 03:46:03;;;;;;;16.55;3.35;;;6.00;99.90;;;;;;5010652;28;20125;-86
2022/01/28 03:48:29;;;;;;;15.80;3.60;;;7.20;99.90;;;;;;5042669;28;20052;-86
2022/01/28 03:50:54;;;;;;;17.92;3.50;;;6.90;99.90;;;;;;5009242;28;20041;-85
2022/01/28 03:53:20;;;;;;;20.13;3.80;;;7.60;99.90;;;;;;5025230;28;20047;-86
2022/01/28 03:55:46;;;;;;;18.08;3.58;;;7.10;99.90;;;;;;5043994;28;20046;-86
2022/01/28 03:58:13;;;;;;;17.70;3.38;;;7.20;99.90;;;;;;5003798;28;20501;-85
2022/01/28 04:00:39;;;;;;;19.60;4.18;;;7.00;99.90;;;;;;5013890;28;20048;-86
2022/01/28 04:03:25;;;;;;;19.05;4.28;;;6.20;99.90;;;;;;5027803;28;20033;-86
2022/01/28 04:13:47;;;;;;;16.95;3.80;;;6.20;99.90;;;;;;5043874;28;20148;-85
2022/01/28 04:18:45;;;;;;;15.50;3.17;;;5.90;99.90;;;;;;5015596;28;20056;-86
2022/01/28 04:21:11;;;;;;;20.02;3.33;;;5.90;99.90;;;;;;5022672;28;20041;-85
2022/01/28 04:23:37;;;;;;;19.63;3.78;;;7.00;99.90;;;;;;5043443;28;20041;-86
2022/01/28 04:26:03;;;;;;;23.92;4.60;;;7.20;99.90;;;;;;5013648;28;20485;-86
2022/01/28 04:28:29;;;;;;;21.05;4.20;;;7.10;99.90;;;;;;4998304;28;20041;-86
2022/01/28 04:30:55;;;;;;;19.08;3.90;;;5.90;99.90;;;;;;5041149;28;20128;-85
2022/01/28 04:33:21;;;;;;;17.95;3.70;;;7.10;99.90;;;;;;5017280;28;20129;-86
2022/01/28 04:35:49;;;;;;;19.88;3.78;;;6.00;99.90;;;;;;5010959;28;20045;-86
2022/01/28 04:38:29;;;;;;;24.88;4.38;;;7.50;99.90;;;;;;5021433;28;20646;-86
2022/01/28 04:41:09;;;;;;;22.33;4.18;;;6.50;99.90;;;;;;5020269;28;20502;-86
2022/01/28 04:43:47;;;;;;;19.52;3.70;;;6.80;99.90;;;;;;5016551;28;20041;-86
2022/01/28 04:49:05;;;;;;;22.30;4.10;;;6.30;99.90;;;;;;5032598;28;20378;-86
2022/01/28 04:55:04;;;;;;;21.23;4.25;;;6.40;99.90;;;;;;4980932;28;20104;-85
2022/01/28 05:00:19;;;;;;;16.92;3.58;;;6.80;99.90;;;;;;5013788;28;20069;-86
2022/01/28 05:13:56;;;;;;;19.85;3.88;;;5.80;99.90;;;;;;4999257;28;20482;-86
2022/01/28 05:26:56;;;;;;;19.52;4.30;;;5.70;99.90;;;;;;5027771;28;20492;-85
2022/01/28 05:29:23;;;;;;;18.48;3.80;;;6.60;99.90;;;;;;5017723;28;20397;-85
2022/01/28 05:31:48;;;;;;;19.38;4.28;;;7.00;99.90;;;;;;5031752;28;20498;-85
2022/01/28 05:34:15;;;;;;;27.92;5.18;;;6.70;99.90;;;;;;5004058;28;20048;-86
2022/01/28 05:36:41;;;;;;;22.92;4.35;;;6.60;99.90;;;;;;5026474;28;20033;-85
2022/01/28 05:39:07;;;;;;;21.02;4.28;;;7.00;99.90;;;;;;5018086;28;20106;-86
2022/01/28 05:41:33;;;;;;;19.42;4.03;;;5.70;99.90;;;;;;5042324;28;20045;-86
2022/01/28 05:44:00;;;;;;;27.67;4.00;;;6.40;99.90;;;;;;5019521;28;20422;-86
2022/01/28 05:46:28;;;;;;;21.80;4.35;;;6.70;99.90;;;;;;5018582;28;20375;-86
2022/01/28 05:48:55;;;;;;;21.27;3.60;;;5.70;99.90;;;;;;5029061;28;20029;-86
2022/01/28 05:51:21;;;;;;;25.23;4.80;;;5.70;99.90;;;;;;5010101;28;20029;-86
2022/01/28 05:53:47;;;;;;;26.15;5.28;;;6.50;99.90;;;;;;5013338;28;20091;-86
2022/01/28 05:56:13;;;;;;;23.73;4.70;;;5.70;99.90;;;;;;5027384;28;20190;-86
2022/01/28 05:58:38;;;;;;;20.80;3.88;;;5.70;99.90;;;;;;5024272;28;20049;-86
2022/01/28 06:01:04;;;;;;;19.50;4.38;;;7.20;99.90;;;;;;5000218;28;20111;-86
2022/01/28 06:03:30;;;;;;;20.63;4.85;;;5.70;99.90;;;;;;5028424;28;20121;-85
2022/01/28 06:05:55;;;;;;;21.48;5.45;;;5.70;99.90;;;;;;5027036;28;20063;-85
2022/01/28 06:08:21;;;;;;;26.08;5.20;;;6.60;99.90;;;;;;5008832;28;20091;-86
2022/01/28 06:10:47;;;;;;;24.88;4.30;;;5.80;99.90;;;;;;5017998;28;20033;-86
2022/01/28 06:13:13;;;;;;;20.35;4.35;;;5.70;99.90;;;;;;4992223;28;20041;-86
2022/01/28 06:15:43;;;;;;;25.33;4.03;;;7.20;99.90;;;;;;5017691;28;20506;-86
2022/01/28 06:18:10;;;;;;;25.02;4.57;;;6.00;99.90;;;;;;5020913;28;20041;-86
2022/01/28 06:20:35;;;;;;;21.27;4.25;;;6.00;99.90;;;;;;5050619;28;20071;-86
2022/01/28 06:23:02;;;;;;;25.25;4.13;;;5.60;99.90;;;;;;5031889;28;20041;-85
2022/01/28 06:25:27;;;;;;;23.50;4.45;;;6.40;99.90;;;;;;5016038;28;20582;-85
2022/01/28 06:27:53;;;;;;;22.05;4.45;;;5.60;99.90;;;;;;5030242;28;20052;-86
2022/01/28 06:30:20;;;;;;;23.85;4.53;;;5.50;99.90;;;;;;5042295;28;20041;-85
2022/01/28 06:32:47;;;;;;;18.42;3.55;;;6.40;99.90;;;;;;5027711;28;20133;-85
2022/01/28 06:35:13;;;;;;;16.38;4.00;;;7.00;99.90;;;;;;5023124;28;20146;-85
2022/01/28 06:37:41;;;;;;;19.10;4.85;;;6.30;99.90;;;;;;5045541;28;20071;-85
2022/01/28 06:40:15;;;;;;;18.98;3.55;;;5.50;99.90;;;;;;5049284;28;20041;-86
2022/01/28 06:42:42;;;;;;;16.58;2.97;;;5.50;99.90;;;;;;5010019;28;20422;-85
2022/01/28 06:45:08;;;;;;;22.10;3.95;;;6.70;99.90;;;;;;5028128;28;20482;-86
2022/01/28 06:47:35;;;;;;;21.15;3.95;;;5.50;99.90;;;;;;5023311;28;20513;-85
2022/01/28 06:50:04;;;;;;;21.92;4.07;;;5.90;99.90;;;;;;5019770;28;20033;-86
2022/01/28 06:52:31;;;;;;;19.13;3.85;;;6.30;99.90;;;;;;5025045;28;20041;-86
2022/01/28 06:54:57;;;;;;;18.90;3.95;;;6.40;99.90;;;;;;4996493;28;20240;-86
2022/01/28 06:57:22;;;;;;;23.17;4.25;;;6.60;99.90;;;;;;5022166;28;20128;-85
2022/01/28 06:59:48;;;;;;;20.95;3.95;;;6.20;99.90;;;;;;5018482;28;20060;-86
2022/01/28 07:02:13;;;;;;;20.42;3.92;;;7.20;99.90;;;;;;5006767;28;20409;-87
2022/01/28 07:04:39;;;;;;;20.98;3.90;;;6.70;99.90;;;;;;5011304;28;20143;-86
2022/01/28 07:07:06;;;;;;;17.55;3.10;;;5.20;99.90;;;;;;5008887;28;20041;-87
2022/01/28 07:09:34;;;;;;;21.15;4.10;;;5.60;99.90;;;;;;5013435;28;20037;-87
2022/01/28 07:11:59;;;;;;;19.30;4.70;;;6.20;99.90;;;;;;5025949;28;20049;-87
2022/01/28 07:14:25;;;;;;;26.05;4.53;;;6.10;99.90;;;;;;5022712;28;20064;-86
2022/01/28 07:16:51;;;;;;;18.77;4.47;;;5.40;99.90;;;;;;5009900;28;20395;-86
2022/01/28 07:19:16;;;;;;;20.42;3.70;;;5.80;99.90;;;;;;5038334;28;20037;-86
2022/01/28 07:21:42;;;;;;;19.27;3.67;;;5.00;99.90;;;;;;4995453;28;20045;-87
2022/01/28 07:24:08;;;;;;;19.35;3.47;;;5.50;99.90;;;;;;5003834;28;20063;-87
2022/01/28 07:26:33;;;;;;;21.90;3.40;;;5.00;99.90;;;;;;5012068;28;20053;-86
2022/01/28 07:28:59;;;;;;;16.85;3.63;;;5.30;99.90;;;;;;5007538;28;20043;-86
2022/01/28 07:31:25;;;;;;;21.90;4.07;;;6.00;99.90;;;;;;4977744;28;1154799;-88
2022/01/28 07:33:51;;;;;;;20.08;3.88;;;6.10;99.90;;;;;;5005364;28;20090;-86
2022/01/28 07:36:16;;;;;;;20.60;3.67;;;6.20;99.90;;;;;;5025288;28;20041;-86
2022/01/28 07:38:42;;;;;;;18.15;3.67;;;5.10;99.90;;;;;;5010323;28;20493;-86
2022/01/28 07:41:08;;;;;;;20.80;4.18;;;6.40;99.90;;;;;;5028866;28;20565;-88
2022/01/28 07:43:37;;;;;;;18.48;3.60;;;6.10;99.90;;;;;;5006300;28;20576;-88
2022/01/28 07:46:04;;;;;;;25.63;3.95;;;6.30;99.90;;;;;;5007050;28;20040;-87
2022/01/28 07:48:30;;;;;;;23.67;4.22;;;5.50;99.90;;;;;;5028879;28;20054;-89
2022/01/28 07:50:55;;;;;;;24.33;3.65;;;6.40;99.90;;;;;;5029427;28;20044;-88
2022/01/28 07:53:21;;;;;;;25.17;5.20;;;6.40;99.90;;;;;;5012361;28;20053;-87
2022/01/28 07:55:47;;;;;;;25.30;4.70;;;6.80;99.90;;;;;;5040328;28;20086;-88
2022/01/28 07:58:13;;;;;;;22.67;4.07;;;5.30;99.90;;;;;;5006857;28;20127;-87
2022/01/28 08:00:38;;;;;;;21.08;4.80;;;6.00;99.90;;;;;;5002751;28;20151;-88
2022/01/28 08:03:04;;;;;;;19.52;3.78;;;6.10;99.90;;;;;;5028749;28;20080;-87
2022/01/28 08:05:30;;;;;;;25.33;4.95;;;7.10;99.90;;;;;;4997964;28;20047;-88
2022/01/28 08:07:56;;;;;;;25.63;4.65;;;5.20;99.90;;;;;;5013641;28;20060;-87
2022/01/28 08:10:22;;;;;;;29.58;5.10;;;5.20;99.90;;;;;;4987289;28;20478;-87
2022/01/28 08:12:50;;;;;;;20.85;4.10;;;5.20;99.90;;;;;;5011597;28;20037;-85
2022/01/28 08:15:16;;;;;;;25.23;4.80;;;5.10;99.90;;;;;;5040602;28;20056;-88
2022/01/28 08:17:42;;;;;;;23.73;4.07;;;5.20;99.90;;;;;;5024093;28;20119;-88
2022/01/28 08:20:08;;;;;;;25.45;4.82;;;6.50;99.90;;;;;;5014555;28;20083;-89
2022/01/28 08:22:51;;;;;;;29.52;4.75;;;5.20;99.90;;;;;;5029338;28;20495;-89
2022/01/28 08:25:19;;;;;;;22.92;4.95;;;5.20;99.90;;;;;;5006056;28;20034;-88
2022/01/28 08:27:45;;;;;;;22.95;4.35;;;5.30;99.90;;;;;;5023537;28;20045;-88
2022/01/28 08:30:13;;;;;;;21.60;3.92;;;5.40;99.90;;;;;;5010064;28;20544;-87
2022/01/28 08:32:38;;;;;;;28.50;4.28;;;5.40;99.90;;;;;;5038260;28;20056;-88
2022/01/28 08:35:04;;;;;;;22.15;4.68;;;6.10;99.90;;;;;;5006794;28;20037;-87
2022/01/28 08:37:31;;;;;;;22.13;4.95;;;5.50;99.90;;;;;;5028457;28;20084;-88
2022/01/28 08:39:56;;;;;;;24.33;5.32;;;5.50;99.90;;;;;;5005189;28;20025;-87
2022/01/28 08:42:22;;;;;;;25.88;4.43;;;6.10;99.90;;;;;;5025503;28;20446;-88
2022/01/28 08:44:48;;;;;;;18.60;4.50;;;;;;;;;;4993749;28;20064;-89
2022/01/28 08:47:14;;;;;;;21.65;4.40;;;5.70;99.90;;;;;;5017995;28;20047;-88
2022/01/28 08:49:40;;;;;;;19.52;4.40;;;5.70;99.90;;;;;;5030478;28;20037;-89
2022/01/28 08:52:06;;;;;;;21.85;4.50;;;7.00;99.90;;;;;;5016130;28;20247;-89
2022/01/28 08:54:31;;;;;;;20.92;4.10;;;5.80;99.90;;;;;;5004164;28;20405;-87
2022/01/28 08:56:57;;;;;;;26.33;4.82;;;5.90;99.90;;;;;;5005907;28;20048;-88
2022/01/28 08:59:23;;;;;;;17.25;3.90;;;7.30;99.90;;;;;;4989075;28;20117;-87
2022/01/28 09:01:48;;;;;;;20.90;4.32;;;5.80;99.90;;;;;;5013383;28;20072;-89
2022/01/28 09:04:14;;;;;;;24.17;4.72;;;6.80;99.90;;;;;;5029104;28;20061;-87
2022/01/28 09:06:40;;;;;;;23.27;5.13;;;5.80;99.90;;;;;;5030203;28;20052;-87
2022/01/28 09:09:06;;;;;;;20.38;3.85;;;5.80;99.90;;;;;;5003007;28;20041;-87
2022/01/28 09:11:45;;;;;;;20.40;4.43;;;5.80;99.90;;;;;;5015507;28;20041;-86
2022/01/28 09:14:14;;;;;;;23.38;4.38;;;6.20;99.90;;;;;;5013659;28;20044;-88
2022/01/28 09:16:42;;;;;;;25.00;5.22;;;5.80;99.90;;;;;;5035008;28;20044;-88
2022/01/28 09:19:08;;;;;;;23.25;3.88;;;6.60;99.90;;;;;;5022351;28;20049;-87
2022/01/28 09:21:34;;;;;;;25.60;4.20;;;5.90;99.90;;;;;;5026450;28;20071;-88
2022/01/28 09:24:00;;;;;;;21.50;4.43;;;5.90;99.90;;;;;;5017836;28;20128;-88
2022/01/28 09:26:25;;;;;;;23.77;4.53;;;5.90;99.90;;;;;;5017144;28;20037;-88
2022/01/28 09:28:51;;;;;;;25.08;4.63;;;6.00;99.90;;;;;;5037023;28;20060;-89
2022/01/28 09:31:17;;;;;;;17.85;4.20;;;6.10;99.90;;;;;;5007880;28;20092;-88
2022/01/28 09:33:43;;;;;;;27.30;4.75;;;6.20;99.90;;;;;;5019081;28;20050;-87
2022/01/28 09:36:10;;;;;;;20.50;4.90;;;7.00;99.90;;;;;;5022265;28;20045;-88
2022/01/28 09:38:35;;;;;;;20.02;3.80;;;6.50;99.90;;;;;;5042468;28;20175;-89
2022/01/28 09:41:03;;;;;;;26.25;4.80;;;6.20;99.90;;;;;;5009350;28;20116;-88
2022/01/28 09:43:29;;;;;;;19.25;3.88;;;6.30;99.90;;;;;;5028473;28;20037;-87
2022/01/28 09:45:55;;;;;;;24.17;4.38;;;7.00;99.90;;;;;;5034835;28;20525;-88
2022/01/28 09:48:22;;;;;;;20.75;4.35;;;6.30;99.90;;;;;;5011522;28;20541;-88
2022/01/28 09:50:48;;;;;;;23.77;4.78;;;6.40;99.90;;;;;;5012499;28;20040;-87
2022/01/28 09:53:15;;;;;;;23.30;4.53;;;6.50;99.90;;;;;;5009564;28;20061;-88
2022/01/28 09:55:41;;;;;;;21.75;4.00;;;6.60;99.90;;;;;;5022298;28;20518;-88
2022/01/28 09:58:07;;;;;;;20.98;4.28;;;7.70;99.90;;;;;;5027608;28;20153;-87
2022/01/28 10:00:34;;;;;;;20.13;3.88;;;6.70;99.90;;;;;;5025852;28;20557;-87
2022/01/28 10:03:03;;;;;;;18.05;4.20;;;6.70;99.90;;;;;;5023533;28;20073;-87
2022/01/28 10:05:31;;;;;;;22.08;3.80;;;6.70;99.90;;;;;;5020954;28;20042;-88
2022/01/28 10:08:15;;;;;;;23.75;4.32;;;7.60;99.90;;;;;;5040050;28;20048;-89
2022/01/28 10:10:51;;;;;;;18.85;3.88;;;6.70;99.90;;;;;;5053063;28;20076;-87
2022/01/28 10:13:42;;;;;;;21.58;4.47;;;6.70;99.90;;;;;;5033294;28;20587;-88
2022/01/28 10:16:17;;;;;;;20.35;3.42;;;8.40;99.90;;;;;;5039814;28;20045;-87
2022/01/28 10:18:46;;;;;;;17.33;3.47;;;6.70;99.90;;;;;;5017908;28;20041;-89
2022/01/28 10:21:23;;;;;;;22.70;3.97;;;6.80;99.90;;;;;;5025175;28;20046;-87
2022/01/28 10:24:09;;;;;;;19.80;3.95;;;7.40;99.90;;;;;;5030892;28;20060;-87
2022/01/28 10:26:46;;;;;;;20.55;4.60;;;6.80;99.90;;;;;;5041043;28;20033;-89
2022/01/28 10:29:32;;;;;;;20.00;4.30;;;8.40;99.90;;;;;;5037589;28;20431;-88
2022/01/28 10:32:27;;;;;;;22.45;4.28;;;7.70;99.90;;;;;;5039797;28;20107;-87
2022/01/28 10:34:53;;;;;;;19.67;4.10;;;8.50;99.90;;;;;;5043911;28;20049;-87
2022/01/28 10:37:19;;;;;;;23.83;4.25;;;7.40;99.90;;;;;;5024285;28;20037;-87
2022/01/28 10:39:59;;;;;;;23.95;4.78;;;8.30;99.90;;;;;;5036397;28;20091;-88
2022/01/28 10:42:25;;;;;;;19.90;4.05;;;7.00;99.90;;;;;;5033625;28;21150;-87
2022/01/28 10:45:10;;;;;;;16.33;3.53;;;8.20;99.90;;;;;;5041577;28;20418;-89
2022/01/28 10:47:36;;;;;;;22.98;4.38;;;7.20;99.90;;;;;;5012897;28;20037;-88
2022/01/28 10:50:22;;;;;;;18.10;4.13;;;8.80;99.90;;;;;;5044846;28;20113;-88
2022/01/28 10:53:13;;;;;;;25.60;4.28;;;7.50;99.90;;;;;;5039324;28;20409;-88
2022/01/28 10:55:41;;;;;;;20.77;5.03;;;7.20;99.90;;;;;;5030286;28;20045;-89
2022/01/28 10:58:15;;;;;;;21.90;4.07;;;7.10;99.90;;;;;;5027612;28;20092;-91
2022/01/28 11:00:46;;;;;;;22.48;3.97;;;7.20;99.90;;;;;;5042812;28;20048;-89
2022/01/28 11:03:15;;;;;;;21.98;4.50;;;7.30;99.90;;;;;;5043755;28;20399;-88
2022/01/28 11:05:41;;;;;;;21.10;3.67;;;7.30;99.90;;;;;;5037334;28;20112;-87
2022/01/28 11:08:11;;;;;;;21.33;4.13;;;7.50;99.90;;;;;;5028294;28;20041;-89
2022/01/28 11:10:37;;;;;;;19.08;3.83;;;7.30;99.90;;;;;;5029294;28;20175;-87
2022/01/28 11:13:03;;;;;;;26.45;4.47;;;7.40;99.90;;;;;;5005785;28;20104;-87
2022/01/28 11:15:30;;;;;;;22.30;3.65;;;;;;;;;;5015978;28;20051;-87
2022/01/28 11:17:58;;;;;;;22.15;3.78;;;7.70;99.90;;;;;;5044680;28;20115;-87
2022/01/28 11:20:31;;;;;;;19.63;4.03;;;7.40;99.90;;;;;;5023300;28;20093;-88
2022/01/28 11:23:35;;;;;;;26.15;3.92;;;8.10;99.90;;;;;;5032565;28;20040;-87
2022/01/28 11:26:37;;;;;;;25.85;4.03;;;7.30;99.90;;;;;;5024928;28;20033;-88
2022/01/28 11:29:18;;;;;;;19.63;3.83;;;7.30;99.90;;;;;;5027743;28;20081;-88
2022/01/28 11:31:50;;;;;;;20.95;3.25;;;7.30;99.90;;;;;;5026406;28;20128;-87
2022/01/28 11:34:30;;;;;;;22.67;4.28;;;7.20;99.90;;;;;;5028836;28;20045;-87
2022/01/28 11:36:58;;;;;;;20.33;4.10;;;7.40;99.90;;;;;;5027189;28;20033;-88
2022/01/28 11:39:37;;;;;;;16.75;3.55;;;7.10;99.90;;;;;;5036656;28;20124;-87
2022/01/28 11:42:14;;;;;;;26.42;3.85;;;7.50;99.90;;;;;;5013471;28;20033;-88
2022/01/28 11:44:40;;;;;;;19.38;4.25;;;7.10;99.90;;;;;;5027543;28;20042;-88
2022/01/28 11:47:05;;;;;;;25.40;4.55;;;7.10;99.90;;;;;;5024003;28;20037;-88
2022/01/28 11:49:50;;;;;;;19.70;3.35;;;7.20;99.90;;;;;;5031723;28;20501;-88
2022/01/28 11:52:24;;;;;;;16.33;3.22;;;7.20;99.90;;;;;;5044808;28;20068;-89
2022/01/28 11:54:50;;;;;;;17.92;3.67;;;7.30;99.90;;;;;;5027460;28;20106;-88
2022/01/28 11:57:17;;;;;;;24.58;3.75;;;7.30;99.90;;;;;;5010911;28;20457;-88
2022/01/28 11:59:43;;;;;;;15.95;3.33;;;7.80;99.90;;;;;;5012881;28;20033;-89
2022/01/28 12:02:10;;;;;;;18.67;3.38;;;7.40;99.90;;;;;;5012924;28;20052;-91
2022/01/28 12:04:39;;;;;;;19.90;4.05;;;7.20;99.90;;;;;;5011530;28;20048;-90
2022/01/28 12:07:15;;;;;;;18.30;3.55;;;7.20;99.90;;;;;;5024451;28;20402;-89
2022/01/28 12:10:01;;;;;;;19.95;3.70;;;7.20;99.90;;;;;;5024659;28;20037;-91
2022/01/28 12:12:44;;;;;;;22.27;4.03;;;7.20;99.90;;;;;;5014596;28;20397;-91
2022/01/28 12:15:15;;;;;;;19.10;3.58;;;8.20;99.90;;;;;;5030670;28;21437;-88
2022/01/28 12:17:46;;;;;;;19.45;3.65;;;7.30;99.90;;;;;;5008888;28;20064;-90
2022/01/28 12:20:21;;;;;;;22.73;3.78;;;7.40;99.90;;;;;;5013789;28;20044;-89
2022/01/28 12:23:25;;;;;;;25.63;4.15;;;7.40;99.90;;;;;;5021626;28;20034;-88
2022/01/28 12:25:56;;;;;;;20.77;3.50;;;8.00;99.90;;;;;;5019392;28;20033;-89
2022/01/28 12:28:33;;;;;;;16.98;3.20;;;8.00;99.90;;;;;;5024173;28;20037;-88
2022/01/28 12:31:32;;;;;;;19.90;4.22;;;7.50;99.90;;;;;;5047370;28;20056;-88
2022/01/28 12:34:01;;;;;;;20.90;3.72;;;8.10;99.90;;;;;;5011052;28;20072;-89
2022/01/28 12:36:33;;;;;;;17.13;2.88;;;7.60;99.90;;;;;;5038584;28;20116;-90
2022/01/28 12:39:31;;;;;;;23.48;3.65;;;7.70;99.90;;;;;;5040192;28;20033;-88
2022/01/28 12:42:11;;;;;;;18.38;3.25;;;7.80;99.90;;;;;;5029223;28;20095;-89
2022/01/28 12:44:38;;;;;;;21.10;3.33;;;8.00;99.90;;;;;;5031881;28;20528;-87
2022/01/28 12:47:10;;;;;;;17.67;3.30;;;8.20;99.90;;;;;;5008071;28;20030;-89
2022/01/28 12:49:37;;;;;;;16.15;3.35;;;8.10;99.90;;;;;;5019771;28;20063;-87
2022/01/28 12:52:08;;;;;;;18.10;3.88;;;9.40;99.90;;;;;;5010486;28;20397;-88
2022/01/28 12:54:35;;;;;;;19.80;3.33;;;8.20;99.90;;;;;;5020753;28;20403;-89
2022/01/28 12:57:01;;;;;;;17.52;3.80;;;8.30;99.90;;;;;;5027421;28;20037;-87
2022/01/28 12:59:27;;;;;;;18.90;3.63;;;8.40;99.90;;;;;;5029485;28;20386;-87
2022/01/28 13:01:55;;;;;;;19.42;3.22;;;8.80;99.90;;;;;;5018722;28;20451;-87
2022/01/28 13:04:24;;;;;;;14.80;3.53;;;8.40;99.90;;;;;;5027597;28;20043;-88
2022/01/28 13:09:23;;;;;;;23.77;4.00;;;8.20;99.90;;;;;;5002260;28;20047;-88
2022/01/28 13:11:54;;;;;;;18.27;3.25;;;8.20;99.90;;;;;;5045340;28;20037;-87
2022/01/28 13:14:34;;;;;;;19.75;3.53;;;8.80;99.90;;;;;;5035762;28;20071;-87
2022/01/28 13:17:01;;;;;;;19.30;3.45;;;8.20;99.90;;;;;;5041427;28;20770;-85
2022/01/28 13:19:27;;;;;;;17.80;3.47;;;8.30;99.90;;;;;;5014397;28;20460;-87
2022/01/28 13:21:54;;;;;;;21.13;3.88;;;8.00;99.90;;;;;;5011113;28;20050;-87
2022/01/28 13:24:25;;;;;;;19.58;3.17;;;7.90;99.90;;;;;;4999482;28;20072;-87
2022/01/28 13:27:05;;;;;;;20.02;4.05;;;8.00;99.90;;;;;;5016742;28;20052;-87
2022/01/28 13:29:35;;;;;;;18.38;3.50;;;7.90;99.90;;;;;;5013468;28;20073;-88
2022/01/28 13:32:04;;;;;;;16.85;3.10;;;7.90;99.90;;;;;;5031402;28;20340;-88
2022/01/28 13:34:52;;;;;;;19.45;3.13;;;7.80;99.90;;;;;;5022905;28;20045;-86
2022/01/28 13:37:32;;;;;;;15.23;3.30;;;7.80;99.90;;;;;;5027167;28;20038;-88
2022/01/28 13:39:59;;;;;;;20.58;3.70;;;7.80;99.90;;;;;;5027350;28;20037;-88
2022/01/28 13:42:24;;;;;;;16.65;3.38;;;8.20;99.90;;;;;;5022238;28;20037;-88
2022/01/28 13:44:51;;;;;;;18.98;3.65;;;7.80;99.90;;;;;;5026248;28;20044;-87
2022/01/28 13:47:17;;;;;;;20.20;3.55;;;7.70;99.90;;;;;;5028140;28;20268;-87
2022/01/28 13:49:44;;;;;;;15.00;3.70;;;9.10;99.90;;;;;;5017856;28;20041;-89
2022/01/28 13:52:20;;;;;;;16.00;3.42;;;7.70;99.90;;;;;;4998199;28;20041;-87
2022/01/28 13:54:46;;;;;;;18.85;4.18;;;7.70;99.90;;;;;;5032665;28;20394;-87
2022/01/28 13:57:13;;;;;;;17.35;3.50;;;7.70;99.90;;;;;;5038372;28;20032;-89
2022/01/28 13:59:42;;;;;;;15.27;3.80;;;8.30;99.90;;;;;;5049407;28;20142;-89
2022/01/28 14:02:16;;;;;;;15.18;3.58;;;7.70;99.90;;;;;;5010911;28;20120;-86
2022/01/28 14:04:44;;;;;;;20.23;3.55;;;8.60;99.90;;;;;;5039455;28;20076;-89
2022/01/28 14:07:20;;;;;;;17.10;3.50;;;7.70;99.90;;;;;;5036121;28;20123;-89
2022/01/28 14:09:45;;;;;;;19.45;3.50;;;7.70;99.90;;;;;;5045098;28;20112;-87
2022/01/28 14:12:23;;;;;;;19.08;3.88;;;7.70;99.90;;;;;;5045466;28;20121;-86
2022/01/28 14:14:48;;;;;;;17.02;3.50;;;9.10;99.90;;;;;;5021840;28;20502;-87
2022/01/28 14:17:14;;;;;;;17.88;2.95;;;7.90;99.90;;;;;;5046507;28;20044;-90
2022/01/28 14:19:43;;;;;;;16.60;2.83;;;9.70;99.90;;;;;;5017059;28;20060;-88
2022/01/28 14:22:12;;;;;;;15.90;3.60;;;9.10;99.90;;;;;;5016405;28;20065;-88
2022/01/28 14:24:42;;;;;;;17.52;3.05;;;8.90;99.90;;;;;;5046858;28;20038;-87
2022/01/28 14:32:07;;;;;;;18.45;3.35;;;8.20;99.90;;;;;;5040679;28;20045;-88